createdAt,value
2017-08-26T00:00:39.642Z,19.22
2017-08-26T00:03:07.998Z,19.28
2017-08-26T00:05:35.534Z,19.38
2017-08-26T00:08:03.143Z,19.54
2017-08-26T00:10:30.681Z,19.61
2017-08-26T00:12:58.444Z,19.55
2017-08-26T00:15:33.843Z,19.31
2017-08-26T00:20:49.987Z,19.47
2017-08-26T00:23:27.796Z,19.33
2017-08-26T00:26:07.275Z,19.33
2017-08-26T00:28:51.016Z,19.16
2017-08-26T00:31:22.719Z,19.23
2017-08-26T00:33:50.275Z,19.26
2017-08-26T00:36:17.863Z,19.34
2017-08-26T00:38:45.435Z,19.32
2017-08-26T00:41:12.970Z,19.37
2017-08-26T00:43:40.515Z,19.16
2017-08-26T00:46:08.114Z,18.84
2017-08-26T00:48:35.661Z,18.98
2017-08-26T00:51:03.214Z,19.08
2017-08-26T00:53:30.833Z,18.73
2017-08-26T00:55:58.389Z,18.45
2017-08-26T00:58:25.903Z,18.36
2017-08-26T01:00:53.510Z,18.36
2017-08-26T01:03:21.040Z,18.24
2017-08-26T01:05:48.601Z,18.15
2017-08-26T01:08:16.158Z,18.13
2017-08-26T01:10:44.019Z,18.15
2017-08-26T01:13:11.621Z,18.10
2017-08-26T01:15:39.221Z,18.24
2017-08-26T01:18:06.774Z,18.44
2017-08-26T01:20:34.353Z,18.43
2017-08-26T01:23:02.472Z,18.58
2017-08-26T01:25:30.011Z,18.72
2017-08-26T01:27:57.575Z,18.64
2017-08-26T01:30:25.203Z,18.59
2017-08-26T01:32:52.731Z,18.66
2017-08-26T01:35:20.266Z,18.77
2017-08-26T01:37:47.824Z,18.81
2017-08-26T01:40:15.348Z,18.85
2017-08-26T01:42:42.870Z,18.81
2017-08-26T01:45:10.457Z,18.65
2017-08-26T01:47:37.971Z,18.67
2017-08-26T01:50:05.509Z,18.73
2017-08-26T01:52:33.062Z,18.68
2017-08-26T01:55:00.603Z,18.82
2017-08-26T01:57:28.117Z,18.75
2017-08-26T01:59:55.679Z,18.83
2017-08-26T02:02:23.277Z,18.74
2017-08-26T02:04:50.800Z,18.65
2017-08-26T02:07:18.329Z,18.48
2017-08-26T02:09:45.883Z,18.56
2017-08-26T02:12:13.670Z,18.48
2017-08-26T02:14:41.185Z,18.49
2017-08-26T02:17:08.741Z,18.35
2017-08-26T02:19:36.264Z,18.41
2017-08-26T02:22:03.797Z,18.39
2017-08-26T02:24:31.395Z,18.41
2017-08-26T02:26:58.927Z,18.40
2017-08-26T02:29:26.440Z,18.23
2017-08-26T02:31:54.029Z,18.16
2017-08-26T02:34:21.566Z,18.08
2017-08-26T02:36:49.304Z,18.06
2017-08-26T02:39:16.898Z,17.87
2017-08-26T02:41:44.403Z,18.04
2017-08-26T02:44:11.972Z,18.16
2017-08-26T02:46:39.576Z,18.17
2017-08-26T02:49:07.741Z,18.03
2017-08-26T02:51:35.308Z,17.94
2017-08-26T02:54:02.894Z,17.96
2017-08-26T02:56:30.417Z,17.91
2017-08-26T02:58:58.268Z,17.74
2017-08-26T03:01:25.863Z,17.72
2017-08-26T03:03:53.407Z,17.79
2017-08-26T03:06:20.913Z,17.93
2017-08-26T03:08:48.452Z,17.94
2017-08-26T03:11:16.231Z,17.93
2017-08-26T03:13:43.749Z,17.87
2017-08-26T03:16:11.849Z,17.80
2017-08-26T03:18:39.385Z,17.72
2017-08-26T03:21:06.930Z,17.72
2017-08-26T03:23:34.499Z,17.99
2017-08-26T03:26:02.009Z,18.08
2017-08-26T03:28:29.501Z,17.99
2017-08-26T03:30:57.140Z,18.05
2017-08-26T03:33:24.688Z,17.87
2017-08-26T03:35:52.230Z,17.78
2017-08-26T03:38:19.812Z,17.67
2017-08-26T03:40:47.648Z,17.58
2017-08-26T03:43:15.180Z,17.73
2017-08-26T03:45:42.720Z,17.47
2017-08-26T03:48:10.252Z,17.57
2017-08-26T03:50:37.784Z,17.50
2017-08-26T03:53:05.342Z,17.76
2017-08-26T03:55:32.883Z,17.66
2017-08-26T03:58:00.391Z,17.57
2017-08-26T04:00:27.971Z,17.63
2017-08-26T04:02:55.507Z,17.64
2017-08-26T04:05:23.118Z,17.43
2017-08-26T04:07:50.666Z,17.55
2017-08-26T04:10:18.197Z,17.59
2017-08-26T04:12:45.733Z,17.72
2017-08-26T04:15:13.509Z,17.62
2017-08-26T04:17:41.067Z,17.71
2017-08-26T04:20:08.958Z,17.82
2017-08-26T04:22:36.650Z,17.84
2017-08-26T04:25:04.212Z,18.03
2017-08-26T04:27:32.697Z,18.09
2017-08-26T04:30:00.260Z,18.10
2017-08-26T04:32:27.812Z,18.15
2017-08-26T04:34:55.343Z,18.26
2017-08-26T04:37:22.868Z,18.32
2017-08-26T04:39:50.467Z,18.27
2017-08-26T04:42:17.988Z,18.37
2017-08-26T04:44:45.499Z,18.58
2017-08-26T04:47:13.050Z,18.65
2017-08-26T04:49:40.580Z,18.78
2017-08-26T04:52:08.193Z,19.06
2017-08-26T04:54:35.764Z,19.51
2017-08-26T04:57:03.376Z,19.92
2017-08-26T04:59:30.949Z,20.25
2017-08-26T05:01:58.538Z,20.74
2017-08-26T05:04:26.108Z,21.08
2017-08-26T05:06:53.667Z,21.32
2017-08-26T05:09:21.255Z,21.65
2017-08-26T05:11:48.833Z,22.06
2017-08-26T05:14:16.397Z,22.39
2017-08-26T05:16:44.000Z,22.42
2017-08-26T05:19:11.542Z,22.65
2017-08-26T05:21:39.135Z,22.88
2017-08-26T05:24:06.738Z,23.16
2017-08-26T05:26:35.775Z,23.23
2017-08-26T05:29:03.761Z,23.51
2017-08-26T05:31:31.351Z,23.75
2017-08-26T05:33:59.151Z,23.82
2017-08-26T05:36:26.744Z,24.07
2017-08-26T05:38:54.367Z,24.19
2017-08-26T05:41:22.166Z,24.11
2017-08-26T05:43:50.043Z,24.50
2017-08-26T05:46:17.640Z,24.50
2017-08-26T05:48:46.013Z,24.96
2017-08-26T05:51:13.752Z,25.10
2017-08-26T05:53:41.835Z,25.34
2017-08-26T05:56:10.068Z,25.25
2017-08-26T05:58:37.744Z,25.52
2017-08-26T06:01:06.115Z,25.81
2017-08-26T06:03:33.865Z,25.93
2017-08-26T06:09:22.756Z,26.58
2017-08-26T06:11:50.478Z,26.29
2017-08-26T06:14:18.124Z,26.49
2017-08-26T06:16:45.859Z,26.96
2017-08-26T06:19:13.503Z,26.90
2017-08-26T06:21:41.198Z,26.53
2017-08-26T06:24:08.959Z,27.27
2017-08-26T06:26:36.663Z,27.10
2017-08-26T06:29:04.295Z,27.21
2017-08-26T06:31:32.170Z,27.97
2017-08-26T06:33:59.787Z,27.66
2017-08-26T06:36:27.361Z,27.12
2017-08-26T06:38:55.027Z,27.11
2017-08-26T06:41:23.667Z,27.18
2017-08-26T06:43:51.313Z,27.05
2017-08-26T06:46:19.725Z,25.95
2017-08-26T06:48:47.996Z,26.31
2017-08-26T06:51:15.698Z,27.78
2017-08-26T06:53:43.451Z,27.57
2017-08-26T06:56:11.774Z,26.89
2017-08-26T06:58:40.284Z,27.53
2017-08-26T07:01:08.565Z,26.95
2017-08-26T07:03:37.016Z,27.54
2017-08-26T07:06:04.631Z,28.02
2017-08-26T07:08:32.228Z,28.43
2017-08-26T07:11:00.168Z,29.08
2017-08-26T07:13:28.309Z,28.51
2017-08-26T07:15:58.021Z,28.71
2017-08-26T07:18:29.596Z,28.07
2017-08-26T07:20:58.115Z,28.22
2017-08-26T07:23:26.165Z,28.21
2017-08-26T07:25:53.984Z,28.96
2017-08-26T07:28:22.402Z,29.58
2017-08-26T07:30:53.144Z,28.65
2017-08-26T07:33:23.026Z,28.38
2017-08-26T07:35:51.930Z,28.38
2017-08-26T07:38:23.636Z,28.67
2017-08-26T07:40:54.581Z,29.38
2017-08-26T07:43:26.351Z,30.39
2017-08-26T07:46:11.351Z,29.59
2017-08-26T07:48:40.400Z,29.88
2017-08-26T07:51:09.294Z,29.84
2017-08-26T07:53:38.212Z,30.02
2017-08-26T07:56:06.216Z,29.50
2017-08-26T07:58:33.735Z,29.80
2017-08-26T08:01:01.894Z,29.57
2017-08-26T08:03:30.696Z,30.04
2017-08-26T08:05:58.686Z,28.79
2017-08-26T08:08:26.381Z,29.53
2017-08-26T08:11:10.432Z,30.19
2017-08-26T08:13:42.837Z,30.37
2017-08-26T08:16:12.658Z,30.72
2017-08-26T08:18:43.916Z,30.21
2017-08-26T08:21:14.141Z,30.48
2017-08-26T08:23:42.907Z,30.38
2017-08-26T08:26:11.172Z,30.77
2017-08-26T08:28:38.792Z,31.34
2017-08-26T08:31:07.130Z,30.91
2017-08-26T08:33:36.436Z,30.50
2017-08-26T08:36:03.959Z,30.24
2017-08-26T08:38:31.511Z,29.72
2017-08-26T08:40:59.043Z,29.05
2017-08-26T08:43:27.521Z,30.20
2017-08-26T08:45:56.356Z,30.69
2017-08-26T08:48:24.452Z,30.47
2017-08-26T08:50:52.686Z,30.87
2017-08-26T08:53:20.259Z,30.36
2017-08-26T08:55:47.857Z,30.60
2017-08-26T08:58:15.396Z,31.50
2017-08-26T09:00:42.977Z,32.38
2017-08-26T09:03:10.501Z,31.90
2017-08-26T09:05:38.327Z,31.62
2017-08-26T09:08:06.593Z,31.68
2017-08-26T09:10:34.115Z,31.15
2017-08-26T09:13:01.928Z,32.10
2017-08-26T09:15:29.581Z,31.04
2017-08-26T09:17:57.310Z,30.63
2017-08-26T09:20:25.233Z,31.22
2017-08-26T09:22:52.825Z,31.28
2017-08-26T09:25:20.641Z,31.61
2017-08-26T09:27:48.504Z,31.79
2017-08-26T09:30:16.232Z,32.08
2017-08-26T09:32:45.347Z,31.78
2017-08-26T09:35:12.846Z,31.19
2017-08-26T09:57:21.943Z,30.46
2017-08-26T10:02:35.834Z,30.95
2017-08-26T10:05:03.370Z,31.67
2017-08-26T10:07:30.887Z,31.49
2017-08-26T10:09:58.463Z,31.20
2017-08-26T10:12:26.343Z,30.93
2017-08-26T10:14:54.527Z,31.05
2017-08-26T10:17:22.071Z,30.88
2017-08-26T10:19:49.570Z,31.41
2017-08-26T10:22:17.065Z,31.59
2017-08-26T10:24:44.619Z,31.45
2017-08-26T10:27:12.408Z,31.80
2017-08-26T10:29:46.561Z,31.44
2017-08-26T10:32:14.245Z,31.66
2017-08-26T10:34:42.389Z,31.95
2017-08-26T10:37:10.938Z,32.66
2017-08-26T10:39:38.760Z,32.79
2017-08-26T10:42:06.273Z,32.70
2017-08-26T10:44:33.893Z,32.06
2017-08-26T10:47:01.445Z,32.22
2017-08-26T10:49:28.984Z,32.00
2017-08-26T10:51:56.537Z,31.29
2017-08-26T10:54:24.116Z,31.81
2017-08-26T10:56:51.657Z,31.85
2017-08-26T10:59:19.184Z,32.09
2017-08-26T11:01:47.871Z,32.10
2017-08-26T11:04:15.373Z,32.60
2017-08-26T11:06:42.898Z,33.13
2017-08-26T11:09:10.689Z,32.59
2017-08-26T11:11:38.222Z,32.63
2017-08-26T11:14:06.085Z,32.89
2017-08-26T11:16:33.621Z,33.24
2017-08-26T11:19:01.362Z,33.07
2017-08-26T11:21:28.868Z,32.35
2017-08-26T11:23:56.678Z,31.97
2017-08-26T11:26:24.513Z,32.10
2017-08-26T11:28:52.076Z,32.18
2017-08-26T11:31:22.778Z,32.20
2017-08-26T11:33:51.632Z,32.76
2017-08-26T11:36:57.907Z,33.04
2017-08-26T11:42:58.524Z,33.32
2017-08-26T11:48:36.039Z,32.18
2017-08-26T11:51:05.389Z,32.49
2017-08-26T11:53:36.060Z,32.47
2017-08-26T11:56:07.985Z,32.62
2017-08-26T11:58:39.782Z,32.80
2017-08-26T12:01:11.847Z,32.99
2017-08-26T12:03:44.353Z,33.19
2017-08-26T12:06:14.780Z,33.48
2017-08-26T12:08:46.381Z,33.12
2017-08-26T12:11:15.878Z,33.23
2017-08-26T12:13:48.227Z,33.39
2017-08-26T12:16:22.342Z,33.10
2017-08-26T12:18:54.993Z,33.46
2017-08-26T12:21:26.443Z,33.55
2017-08-26T12:23:58.765Z,33.35
2017-08-26T12:26:30.053Z,33.31
2017-08-26T12:29:07.017Z,33.37
2017-08-26T12:31:38.564Z,33.33
2017-08-26T12:34:09.565Z,33.20
2017-08-26T12:36:38.335Z,33.08
2017-08-26T12:41:45.396Z,32.92
2017-08-26T12:44:14.546Z,32.73
2017-08-26T12:46:49.010Z,32.68
2017-08-26T12:49:19.342Z,32.92
2017-08-26T12:51:52.488Z,33.02
2017-08-26T12:54:22.221Z,33.02
2017-08-26T12:56:52.851Z,33.18
2017-08-26T12:59:21.570Z,33.13
2017-08-26T13:01:51.666Z,32.92
2017-08-26T13:04:25.173Z,32.98
2017-08-26T13:06:58.430Z,32.91
2017-08-26T13:09:28.774Z,33.03
2017-08-26T13:11:57.876Z,32.89
2017-08-26T13:17:12.980Z,32.93
2017-08-26T13:19:41.821Z,32.92
2017-08-26T13:22:09.719Z,32.97
2017-08-26T13:24:38.464Z,33.13
2017-08-26T13:30:38.852Z,32.96
2017-08-26T13:33:06.630Z,32.95
2017-08-26T13:35:34.344Z,33.01
2017-08-26T13:38:04.091Z,32.88
2017-08-26T13:40:32.178Z,32.77
2017-08-26T13:43:00.794Z,32.90
2017-08-26T13:45:28.537Z,32.93
2017-08-26T13:47:58.656Z,32.79
2017-08-26T13:50:26.573Z,32.65
2017-08-26T13:52:54.720Z,32.82
2017-08-26T13:55:23.423Z,32.74
2017-08-26T13:57:51.065Z,32.70
2017-08-26T14:00:18.997Z,32.59
2017-08-26T14:02:47.420Z,32.49
2017-08-26T14:05:15.032Z,32.63
2017-08-26T14:07:42.648Z,32.72
2017-08-26T14:10:10.203Z,32.55
2017-08-26T14:12:38.775Z,32.57
2017-08-26T14:15:07.068Z,32.41
2017-08-26T14:17:35.400Z,32.33
2017-08-26T14:20:07.074Z,32.19
2017-08-26T14:22:34.864Z,32.15
2017-08-26T14:25:03.003Z,32.13
2017-08-26T14:27:30.656Z,32.06
2017-08-26T14:29:58.295Z,32.02
2017-08-26T14:32:26.383Z,31.99
2017-08-26T14:34:54.001Z,31.87
2017-08-26T14:37:22.410Z,31.83
2017-08-26T14:39:50.211Z,31.90
2017-08-26T14:42:17.804Z,31.90
2017-08-26T14:44:45.460Z,31.85
2017-08-26T14:47:13.100Z,31.74
2017-08-26T14:49:40.899Z,31.58
2017-08-26T14:52:11.856Z,31.59
2017-08-26T14:54:40.120Z,31.46
2017-08-26T14:57:08.582Z,31.55
2017-08-26T14:59:36.338Z,31.59
2017-08-26T15:02:04.609Z,31.44
2017-08-26T15:04:32.194Z,31.30
2017-08-26T15:06:59.830Z,31.34
2017-08-26T15:09:27.428Z,31.32
2017-08-26T15:11:55.316Z,31.34
2017-08-26T15:14:23.073Z,31.16
2017-08-26T15:16:50.701Z,31.14
2017-08-26T15:19:18.336Z,31.21
2017-08-26T15:21:45.902Z,31.09
2017-08-26T15:24:15.713Z,30.95
2017-08-26T15:26:56.389Z,30.95
2017-08-26T15:29:27.669Z,30.97
2017-08-26T15:31:55.523Z,30.89
2017-08-26T15:34:24.498Z,30.88
2017-08-26T15:36:54.165Z,30.86
2017-08-26T15:39:31.334Z,30.84
2017-08-26T15:42:00.633Z,30.78
2017-08-26T15:44:28.629Z,30.81
2017-08-26T15:46:56.383Z,30.79
2017-08-26T15:49:24.243Z,30.70
2017-08-26T15:51:51.867Z,30.56
2017-08-26T15:54:19.521Z,30.49
2017-08-26T15:56:47.133Z,30.48
2017-08-26T15:59:16.959Z,30.44
2017-08-26T16:01:45.001Z,30.39
2017-08-26T16:04:12.643Z,30.41
2017-08-26T16:06:40.259Z,30.34
2017-08-26T16:09:07.856Z,30.28
2017-08-26T16:11:35.453Z,30.22
2017-08-26T16:14:03.060Z,30.19
2017-08-26T16:16:31.523Z,30.12
2017-08-26T16:18:59.149Z,29.98
2017-08-26T16:21:26.722Z,29.96
2017-08-26T16:23:54.407Z,29.91
2017-08-26T16:26:22.202Z,29.83
2017-08-26T16:28:49.868Z,29.79
2017-08-26T16:31:17.469Z,29.73
2017-08-26T16:33:46.899Z,29.65
2017-08-26T16:36:14.500Z,29.71
2017-08-26T16:38:42.180Z,29.61
2017-08-26T16:41:09.859Z,29.66
2017-08-26T16:43:37.659Z,29.52
2017-08-26T16:46:05.318Z,29.29
2017-08-26T16:48:32.963Z,29.32
2017-08-26T16:51:00.662Z,29.30
2017-08-26T16:53:29.907Z,29.23
2017-08-26T16:55:59.347Z,29.10
2017-08-26T16:58:27.143Z,29.16
2017-08-26T17:00:54.779Z,29.11
2017-08-26T17:03:22.493Z,28.98
2017-08-26T17:05:50.231Z,28.95
2017-08-26T17:08:17.920Z,28.94
2017-08-26T17:10:45.525Z,28.89
2017-08-26T17:13:18.184Z,28.79
2017-08-26T17:15:45.838Z,28.76
2017-08-26T17:18:13.665Z,28.70
2017-08-26T17:20:41.277Z,28.51
2017-08-26T17:23:08.965Z,28.50
2017-08-26T17:25:36.609Z,28.47
2017-08-26T17:28:04.278Z,28.49
2017-08-26T17:30:32.057Z,28.48
2017-08-26T17:32:59.693Z,28.44
2017-08-26T17:35:27.246Z,28.45
2017-08-26T17:37:58.167Z,28.34
2017-08-26T17:40:25.765Z,28.33
2017-08-26T17:42:53.407Z,28.24
2017-08-26T17:45:21.396Z,28.18
2017-08-26T17:47:49.004Z,28.05
2017-08-26T17:50:21.606Z,28.02
2017-08-26T17:52:49.201Z,28.02
2017-08-26T17:55:17.316Z,27.98
2017-08-26T17:57:45.217Z,28.00
2017-08-26T18:00:13.661Z,27.93
2017-08-26T18:02:41.436Z,27.76
2017-08-26T18:05:09.071Z,27.66
2017-08-26T18:07:36.724Z,27.58
2017-08-26T18:10:04.374Z,27.47
2017-08-26T18:12:31.992Z,27.56
2017-08-26T18:15:00.288Z,27.27
2017-08-26T18:17:35.968Z,27.30
2017-08-26T18:20:04.468Z,27.25
2017-08-26T18:22:39.634Z,27.28
2017-08-26T18:25:11.811Z,27.33
2017-08-26T18:27:48.557Z,27.29
2017-08-26T18:30:20.838Z,27.30
2017-08-26T18:32:53.025Z,27.19
2017-08-26T18:35:24.045Z,27.17
2017-08-26T18:37:56.206Z,27.13
2017-08-26T18:40:29.910Z,27.12
2017-08-26T18:42:59.877Z,27.14
2017-08-26T18:45:27.631Z,27.10
2017-08-26T18:47:56.236Z,26.97
2017-08-26T18:50:24.277Z,26.85
2017-08-26T18:52:52.668Z,26.83
2017-08-26T18:55:22.940Z,26.70
2017-08-26T18:57:51.840Z,26.69
2017-08-26T19:00:19.671Z,26.56
2017-08-26T19:06:13.660Z,26.46
2017-08-26T19:08:44.060Z,26.38
2017-08-26T19:18:43.997Z,26.31
2017-08-26T19:21:12.464Z,26.20
2017-08-26T19:23:40.002Z,26.05
2017-08-26T19:26:08.915Z,26.03
2017-08-26T19:28:36.452Z,26.11
2017-08-26T19:31:04.963Z,26.10
2017-08-26T19:33:32.561Z,25.96
2017-08-26T19:36:00.099Z,25.92
2017-08-26T19:38:27.896Z,25.87
2017-08-26T19:40:55.438Z,25.92
2017-08-26T19:43:23.491Z,25.89
2017-08-26T19:45:51.057Z,25.82
2017-08-26T19:48:18.570Z,25.80
2017-08-26T19:50:46.107Z,25.48
2017-08-26T19:53:13.894Z,25.48
2017-08-26T19:55:41.421Z,25.53
2017-08-26T19:58:11.728Z,25.54
2017-08-26T20:00:42.092Z,25.31
2017-08-26T20:03:09.670Z,25.34
2017-08-26T20:05:37.214Z,25.32
2017-08-26T20:08:05.131Z,25.24
2017-08-26T20:10:33.728Z,25.18
2017-08-26T20:13:02.594Z,25.15
2017-08-26T20:15:30.298Z,25.09
2017-08-26T20:17:58.060Z,25.12
2017-08-26T20:20:25.640Z,25.10
2017-08-26T20:22:53.266Z,25.11
2017-08-26T20:25:20.806Z,25.06
2017-08-26T20:27:49.929Z,24.91
2017-08-26T20:30:17.696Z,24.83
2017-08-26T20:32:46.321Z,24.76
2017-08-26T20:35:13.879Z,24.57
2017-08-26T20:37:41.496Z,24.59
2017-08-26T20:40:10.292Z,24.54
2017-08-26T20:42:39.463Z,24.43
2017-08-26T20:45:13.689Z,24.27
2017-08-26T20:47:41.252Z,24.12
2017-08-26T20:50:09.004Z,23.93
2017-08-26T20:52:42.062Z,23.60
2017-08-26T20:55:16.732Z,23.41
2017-08-26T20:57:45.568Z,23.39
2017-08-26T21:00:14.600Z,23.24
2017-08-26T21:02:42.221Z,23.15
2017-08-26T21:05:09.805Z,23.07
2017-08-26T21:07:40.341Z,23.04
2017-08-26T21:10:09.580Z,22.98
2017-08-26T21:12:37.173Z,22.82
2017-08-26T21:15:05.469Z,22.63
2017-08-26T21:17:33.224Z,22.71
2017-08-26T21:20:00.779Z,22.81
2017-08-26T21:22:28.325Z,22.73
2017-08-26T21:24:55.966Z,22.74
2017-08-26T21:27:23.539Z,22.70
2017-08-26T21:29:51.134Z,22.72
2017-08-26T21:32:18.859Z,22.56
2017-08-26T21:34:46.379Z,22.58
2017-08-26T21:37:13.919Z,22.29
2017-08-26T21:39:41.735Z,22.32
2017-08-26T21:42:09.936Z,22.40
2017-08-26T21:44:37.460Z,22.41
2017-08-26T21:47:06.937Z,22.38
2017-08-26T21:49:34.491Z,22.41
2017-08-26T21:52:01.997Z,22.37
2017-08-26T21:54:29.603Z,22.48
2017-08-26T21:56:57.135Z,22.53
2017-08-26T21:59:25.024Z,22.44
2017-08-26T22:01:53.402Z,22.42
2017-08-26T22:04:20.956Z,22.42
2017-08-26T22:06:48.701Z,22.30
2017-08-26T22:09:16.300Z,22.22
2017-08-26T22:11:44.148Z,22.24
2017-08-26T22:14:11.989Z,22.27
2017-08-26T22:16:39.831Z,22.24
2017-08-26T22:19:07.471Z,22.29
2017-08-26T22:21:36.822Z,22.32
2017-08-26T22:24:04.411Z,22.19
2017-08-26T22:26:31.940Z,22.17
2017-08-26T22:28:59.453Z,21.98
2017-08-26T22:31:27.011Z,21.80
2017-08-26T22:33:54.772Z,21.65
2017-08-26T22:36:22.347Z,21.68
2017-08-26T22:38:49.940Z,21.66
2017-08-26T22:41:17.476Z,21.47
2017-08-26T22:43:45.128Z,21.55
2017-08-26T22:46:12.778Z,21.60
2017-08-26T22:48:41.301Z,21.60
2017-08-26T22:51:08.850Z,21.62
2017-08-26T22:53:36.448Z,21.64
2017-08-26T22:56:04.028Z,21.59
2017-08-26T22:58:31.577Z,21.57
2017-08-26T23:00:59.294Z,21.56
2017-08-26T23:03:28.205Z,21.53
2017-08-26T23:05:55.728Z,21.40
2017-08-26T23:08:23.310Z,21.22
2017-08-26T23:10:50.868Z,21.06
2017-08-26T23:13:18.437Z,21.04
2017-08-26T23:15:46.012Z,21.07
2017-08-26T23:18:13.634Z,21.08
2017-08-26T23:20:41.194Z,20.95
2017-08-26T23:23:08.804Z,20.95
2017-08-26T23:25:36.346Z,21.04
2017-08-26T23:28:04.024Z,21.02
2017-08-26T23:30:31.700Z,20.97
2017-08-26T23:33:00.094Z,20.83
2017-08-26T23:35:27.701Z,20.84
2017-08-26T23:37:55.642Z,20.86
2017-08-26T23:40:23.205Z,20.82
2017-08-26T23:42:50.829Z,20.77
2017-08-26T23:45:19.497Z,20.84
2017-08-26T23:47:47.560Z,20.90
2017-08-26T23:50:15.401Z,20.81
2017-08-26T23:52:44.795Z,20.95
2017-08-26T23:55:13.089Z,20.97
2017-08-26T23:57:41.056Z,20.93
